Time;durP1;ratioP1;P1;durP2;ratioP2;P2;SDS_P1;SDS_P2;PMS_P1;PMS_P2;Temp;Humidity;BMP_temperature;BMP_pressure;BME280_temperature;BME280_humidity;BME280_pressure;Samples;Min_cycle;Max_cycle;Signal;HPM_P1;HPM_P2
2021/12/18 00:01:57;;;;;;;0.00;0.00;;;7.20;99.90;;;;;;5105209;27;20653;-67
2021/12/18 00:04:24;;;;;;;0.10;0.10;;;7.20;99.90;;;;;;5113615;27;20657;-67
2021/12/18 00:06:52;;;;;;;0.10;0.10;;;7.20;99.90;;;;;;5103813;27;20617;-66
2021/12/18 00:09:20;;;;;;;0.10;0.10;;;7.20;99.90;;;;;;5114093;27;20721;-66
2021/12/18 00:11:48;;;;;;;0.10;0.10;;;7.20;99.90;;;;;;5104436;27;20641;-67
2021/12/18 00:14:15;;;;;;;0.10;0.10;;;7.20;99.90;;;;;;5104717;27;20615;-67
2021/12/18 00:16:42;;;;;;;0.10;0.10;;;7.20;99.90;;;;;;5107425;27;20625;-67
2021/12/18 00:19:10;;;;;;;0.10;0.10;;;7.20;99.90;;;;;;5105541;27;21239;-67
2021/12/18 00:21:37;;;;;;;0.10;0.10;;;7.20;99.90;;;;;;5102818;27;20665;-67
2021/12/18 00:24:05;;;;;;;0.10;0.10;;;7.20;99.90;;;;;;5105534;27;20687;-68
2021/12/18 00:26:33;;;;;;;0.10;0.10;;;7.20;99.90;;;;;;5104605;27;21259;-67
2021/12/18 00:29:01;;;;;;;0.10;0.10;;;7.20;99.90;;;;;;5114258;27;20611;-67
2021/12/18 00:31:28;;;;;;;0.00;0.00;;;7.30;99.90;;;;;;5105191;27;20649;-67
2021/12/18 00:33:56;;;;;;;0.00;0.00;;;7.20;99.90;;;;;;5106962;27;20625;-68
2021/12/18 00:36:22;;;;;;;0.10;0.10;;;7.30;99.90;;;;;;5104987;27;20701;-67
2021/12/18 00:38:49;;;;;;;0.10;0.10;;;7.20;99.90;;;;;;5103436;27;20629;-67
2021/12/18 00:41:34;;;;;;;0.10;0.10;;;7.30;99.90;;;;;;5104995;27;20651;-68
2021/12/18 00:44:04;;;;;;;0.00;0.00;;;7.30;99.90;;;;;;5122745;27;20674;-67
2021/12/18 00:46:34;;;;;;;0.00;0.00;;;7.30;99.90;;;;;;5106138;27;20610;-67
2021/12/18 00:49:01;;;;;;;0.00;0.00;;;7.20;99.90;;;;;;5112657;27;20626;-67
2021/12/18 00:51:28;;;;;;;0.00;0.00;;;7.30;99.90;;;;;;5113180;27;20622;-67
2021/12/18 00:53:55;;;;;;;0.07;0.07;;;7.30;99.90;;;;;;5103798;27;20622;-67
2021/12/18 00:56:23;;;;;;;0.10;0.10;;;7.20;99.90;;;;;;5098799;27;20683;-66
2021/12/18 00:58:50;;;;;;;0.10;0.10;;;7.20;99.90;;;;;;5104935;27;20716;-68
2021/12/18 01:01:21;;;;;;;0.10;0.10;;;7.20;99.90;;;;;;5097283;27;20622;-67
2021/12/18 01:03:49;;;;;;;0.00;0.00;;;7.20;99.90;;;;;;5104434;27;20642;-69
2021/12/18 01:06:17;;;;;;;0.10;0.10;;;7.20;99.90;;;;;;5102708;27;20615;-67
2021/12/18 01:08:44;;;;;;;0.10;0.10;;;7.10;99.90;;;;;;5105999;27;20630;-68
2021/12/18 01:14:06;;;;;;;0.10;0.10;;;7.10;99.90;;;;;;5101050;27;20640;-67
2021/12/18 01:16:44;;;;;;;0.10;0.10;;;7.10;99.90;;;;;;5103543;27;20633;-68
2021/12/18 01:24:40;;;;;;;0.10;0.10;;;7.10;99.90;;;;;;5121830;27;20737;-67
2021/12/18 01:27:07;;;;;;;0.00;0.00;;;7.10;99.90;;;;;;5103732;27;20630;-67
2021/12/18 01:29:34;;;;;;;0.00;0.00;;;7.10;99.90;;;;;;5119635;27;20661;-67
2021/12/18 01:32:02;;;;;;;0.10;0.10;;;7.10;99.90;;;;;;5104425;27;20653;-66
2021/12/18 01:34:29;;;;;;;0.10;0.10;;;7.10;99.90;;;;;;5103480;27;20654;-67
2021/12/18 01:36:56;;;;;;;0.10;0.10;;;7.10;99.90;;;;;;5103410;27;20717;-67
2021/12/18 01:39:23;;;;;;;0.10;0.10;;;7.10;99.90;;;;;;5120252;27;20633;-67
2021/12/18 01:42:07;;;;;;;0.10;0.10;;;7.10;99.90;;;;;;5105683;27;20653;-66
2021/12/18 01:45:04;;;;;;;0.10;0.10;;;7.10;99.90;;;;;;5113406;27;20741;-66
2021/12/18 01:53:01;;;;;;;0.10;0.10;;;7.20;99.90;;;;;;5115993;27;20689;-66
2021/12/18 01:55:33;;;;;;;0.10;0.10;;;7.20;99.90;;;;;;5103853;27;20622;-66
2021/12/18 01:58:00;;;;;;;0.00;0.00;;;7.20;99.90;;;;;;5102296;27;20618;-67
2021/12/18 02:00:34;;;;;;;0.10;0.10;;;7.20;99.90;;;;;;5123312;27;20628;-67
2021/12/18 02:03:03;;;;;;;0.07;0.07;;;7.20;99.90;;;;;;5123054;27;20668;-66
2021/12/18 02:05:30;;;;;;;0.10;0.10;;;7.20;99.90;;;;;;5121346;27;20745;-67
2021/12/18 02:07:58;;;;;;;0.07;0.07;;;7.20;99.90;;;;;;5114103;27;20629;-67
2021/12/18 02:10:28;;;;;;;0.10;0.10;;;7.20;99.90;;;;;;5105279;27;20622;-66
2021/12/18 02:13:01;;;;;;;0.10;0.10;;;7.20;99.90;;;;;;5122213;27;20641;-67
2021/12/18 02:21:18;;;;;;;0.10;0.10;;;7.20;99.90;;;;;;5068092;28;20621;-67
2021/12/18 02:23:45;;;;;;;0.07;0.07;;;7.20;99.90;;;;;;5083955;27;20983;-67
2021/12/18 02:26:13;;;;;;;0.10;0.10;;;7.20;99.90;;;;;;5103306;27;20625;-66
2021/12/18 02:28:42;;;;;;;0.00;0.00;;;7.20;99.90;;;;;;5104809;27;21051;-66
2021/12/18 02:31:09;;;;;;;0.10;0.10;;;7.30;99.90;;;;;;5097338;27;20618;-67
2021/12/18 02:33:36;;;;;;;0.10;0.10;;;7.30;99.90;;;;;;5109197;27;20736;-67
2021/12/18 02:36:07;;;;;;;0.10;0.10;;;7.30;99.90;;;;;;5102212;27;20648;-67
2021/12/18 02:38:57;;;;;;;0.10;0.10;;;7.30;99.90;;;;;;5121958;27;20617;-67
2021/12/18 02:41:31;;;;;;;0.00;0.00;;;7.30;99.90;;;;;;5102895;28;20714;-68
2021/12/18 02:43:59;;;;;;;0.10;0.10;;;7.20;99.90;;;;;;5100935;27;20622;-68
2021/12/18 02:46:27;;;;;;;0.10;0.10;;;7.20;99.90;;;;;;5102114;27;20618;-68
2021/12/18 02:48:56;;;;;;;0.10;0.10;;;7.20;99.90;;;;;;5102300;27;20683;-68
2021/12/18 02:51:24;;;;;;;0.10;0.10;;;7.20;99.90;;;;;;5120556;27;20610;-67
2021/12/18 02:53:55;;;;;;;0.10;0.10;;;7.20;99.90;;;;;;5100426;28;20629;-67
2021/12/18 02:56:24;;;;;;;0.00;0.00;;;7.20;99.90;;;;;;5103593;27;20649;-68
2021/12/18 02:58:52;;;;;;;0.10;0.10;;;7.20;99.90;;;;;;5112826;27;20629;-68
2021/12/18 03:01:22;;;;;;;0.00;0.00;;;7.10;99.90;;;;;;5101780;28;20725;-68
2021/12/18 03:04:18;;;;;;;0.10;0.10;;;7.10;99.90;;;;;;5120147;28;20637;-68
2021/12/18 03:06:48;;;;;;;0.10;0.10;;;7.20;99.90;;;;;;5120738;28;20625;-68
2021/12/18 03:09:47;;;;;;;0.10;0.10;;;7.20;99.90;;;;;;5093638;28;20626;-68
2021/12/18 03:21:09;;;;;;;0.10;0.10;;;7.20;99.90;;;;;;5116669;27;20607;-67
2021/12/18 03:23:34;;;;;;;0.00;0.00;;;7.10;99.90;;;;;;5106066;27;20649;-68
2021/12/18 03:26:02;;;;;;;0.00;0.00;;;7.10;99.90;;;;;;5126078;27;20649;-67
2021/12/18 03:28:30;;;;;;;0.10;0.10;;;7.10;99.90;;;;;;5124616;27;20613;-68
2021/12/18 03:30:58;;;;;;;0.10;0.10;;;7.10;99.90;;;;;;5105831;27;20614;-68
2021/12/18 03:33:26;;;;;;;0.10;0.10;;;7.20;99.90;;;;;;5114484;27;20742;-67
2021/12/18 03:35:53;;;;;;;0.10;0.10;;;7.20;99.90;;;;;;5099379;27;20654;-69
2021/12/18 03:38:21;;;;;;;0.10;0.10;;;7.20;99.90;;;;;;5107055;27;20619;-67
2021/12/18 03:40:48;;;;;;;0.10;0.10;;;7.10;99.90;;;;;;5105197;27;20646;-68
2021/12/18 03:43:16;;;;;;;0.10;0.10;;;7.10;99.90;;;;;;5106702;27;20647;-68
2021/12/18 03:45:43;;;;;;;0.10;0.10;;;7.10;99.90;;;;;;5106470;27;20680;-68
2021/12/18 03:48:10;;;;;;;0.10;0.10;;;7.10;99.90;;;;;;5115336;27;21059;-68
2021/12/18 03:50:37;;;;;;;0.10;0.10;;;7.10;99.90;;;;;;5103433;27;20633;-68
2021/12/18 03:53:04;;;;;;;0.10;0.10;;;7.00;99.90;;;;;;5107330;27;20657;-68
2021/12/18 03:55:31;;;;;;;0.00;0.00;;;7.00;99.90;;;;;;5125583;27;20604;-68
2021/12/18 03:57:58;;;;;;;0.10;0.10;;;7.00;99.90;;;;;;5104883;27;20621;-68
2021/12/18 04:00:27;;;;;;;0.10;0.10;;;7.00;99.90;;;;;;5105665;27;20629;-67
2021/12/18 04:02:54;;;;;;;0.10;0.10;;;6.90;99.90;;;;;;5125422;27;20666;-67
2021/12/18 04:05:20;;;;;;;0.00;0.00;;;6.90;99.90;;;;;;5106060;27;20647;-69
2021/12/18 04:07:50;;;;;;;0.10;0.10;;;6.90;99.90;;;;;;5104445;27;20622;-68
2021/12/18 04:10:18;;;;;;;0.00;0.00;;;6.90;99.90;;;;;;5104001;27;20680;-69
2021/12/18 04:12:48;;;;;;;0.10;0.10;;;6.90;99.90;;;;;;5112500;27;20642;-68
2021/12/18 04:15:15;;;;;;;0.00;0.00;;;6.90;99.90;;;;;;5105419;27;20632;-69
2021/12/18 04:17:44;;;;;;;0.00;0.00;;;6.90;99.90;;;;;;5112298;27;20622;-70
2021/12/18 04:20:11;;;;;;;0.10;0.10;;;6.90;99.90;;;;;;5102857;27;20701;-69
2021/12/18 04:22:38;;;;;;;0.10;0.10;;;6.90;99.90;;;;;;5124202;27;20668;-70
2021/12/18 04:25:06;;;;;;;0.00;0.00;;;6.90;99.90;;;;;;5104259;27;20752;-69
2021/12/18 04:27:33;;;;;;;0.10;0.10;;;6.90;99.90;;;;;;5124544;27;20613;-70
2021/12/18 04:30:00;;;;;;;0.10;0.10;;;6.90;99.90;;;;;;5104480;27;20618;-69
2021/12/18 04:32:28;;;;;;;0.10;0.10;;;6.80;99.90;;;;;;5125042;27;20649;-71
2021/12/18 04:34:56;;;;;;;0.10;0.10;;;6.80;99.90;;;;;;5103819;27;20622;-69
2021/12/18 04:37:24;;;;;;;0.10;0.10;;;6.80;99.90;;;;;;5103879;27;20622;-69
2021/12/18 04:39:52;;;;;;;0.10;0.10;;;6.80;99.90;;;;;;5105710;27;20630;-69
2021/12/18 04:42:20;;;;;;;0.10;0.10;;;6.80;99.90;;;;;;5125368;27;20666;-70
2021/12/18 04:44:48;;;;;;;0.10;0.10;;;6.80;99.90;;;;;;5123663;27;20729;-70
2021/12/18 04:47:15;;;;;;;0.00;0.00;;;6.80;99.90;;;;;;5122690;27;20610;-71
2021/12/18 04:49:42;;;;;;;0.00;0.00;;;6.80;99.90;;;;;;5124460;27;20609;-72
2021/12/18 04:52:10;;;;;;;0.10;0.10;;;6.80;99.90;;;;;;5123745;27;20648;-72
2021/12/18 04:54:37;;;;;;;0.10;0.10;;;6.80;99.90;;;;;;5104313;27;20647;-71
2021/12/18 04:57:04;;;;;;;0.07;0.07;;;6.80;99.90;;;;;;5104171;27;20622;-71
2021/12/18 04:59:32;;;;;;;0.10;0.10;;;6.80;99.90;;;;;;5124767;27;20720;-71
2021/12/18 05:01:59;;;;;;;0.00;0.00;;;6.80;99.90;;;;;;5110815;27;20665;-71
2021/12/18 05:04:26;;;;;;;0.10;0.10;;;6.80;99.90;;;;;;5103084;27;20610;-71
2021/12/18 05:06:53;;;;;;;0.10;0.10;;;6.80;99.90;;;;;;5103586;27;20633;-71
2021/12/18 05:09:22;;;;;;;0.10;0.10;;;6.80;99.90;;;;;;5093765;27;20620;-70
2021/12/18 05:11:50;;;;;;;0.10;0.10;;;6.80;99.90;;;;;;5124249;27;20737;-70
2021/12/18 05:14:18;;;;;;;0.10;0.10;;;6.80;99.90;;;;;;5121159;27;20598;-72
2021/12/18 05:16:45;;;;;;;0.00;0.00;;;6.80;99.90;;;;;;5124006;27;20600;-71
2021/12/18 05:19:12;;;;;;;0.10;0.10;;;6.80;99.90;;;;;;5100771;27;20633;-72
2021/12/18 05:21:39;;;;;;;0.10;0.10;;;6.80;99.90;;;;;;5110770;27;20665;-71
2021/12/18 05:24:07;;;;;;;0.00;0.00;;;6.80;99.90;;;;;;5103846;27;21262;-71
2021/12/18 05:26:35;;;;;;;0.00;0.00;;;6.80;99.90;;;;;;5121199;27;20825;-72
2021/12/18 05:29:02;;;;;;;0.10;0.10;;;6.80;99.90;;;;;;5099647;27;20665;-72
2021/12/18 05:31:29;;;;;;;0.10;0.10;;;6.80;99.90;;;;;;5121801;27;20606;-72
2021/12/18 05:33:59;;;;;;;0.10;0.10;;;6.70;99.90;;;;;;5122461;27;20603;-71
2021/12/18 05:36:34;;;;;;;0.10;0.10;;;6.70;99.90;;;;;;5104925;27;20668;-71
2021/12/18 05:39:04;;;;;;;0.10;0.10;;;6.70;99.90;;;;;;5092690;27;20614;-71
2021/12/18 05:41:31;;;;;;;0.10;0.10;;;6.70;99.90;;;;;;5104400;27;20649;-71
2021/12/18 05:44:00;;;;;;;0.10;0.10;;;6.70;99.90;;;;;;5122483;27;20602;-70
2021/12/18 05:46:28;;;;;;;0.10;0.10;;;6.60;99.90;;;;;;5115125;27;20689;-72
2021/12/18 05:48:55;;;;;;;0.10;0.10;;;6.60;99.90;;;;;;5103771;27;20614;-71
2021/12/18 05:51:22;;;;;;;0.00;0.00;;;6.60;99.90;;;;;;5119685;27;20630;-71
2021/12/18 05:53:50;;;;;;;0.00;0.00;;;6.60;99.90;;;;;;5103866;27;20622;-70
2021/12/18 05:56:16;;;;;;;0.10;0.10;;;6.60;99.90;;;;;;5103204;27;20701;-71
2021/12/18 05:58:44;;;;;;;0.10;0.10;;;6.60;99.90;;;;;;5102168;27;20637;-70
2021/12/18 06:01:14;;;;;;;0.00;0.00;;;6.60;99.90;;;;;;5102369;27;20648;-70
2021/12/18 06:03:42;;;;;;;0.10;0.10;;;6.60;99.90;;;;;;5104188;27;20610;-69
2021/12/18 06:06:09;;;;;;;0.10;0.10;;;6.60;99.90;;;;;;5104867;27;20722;-69
2021/12/18 06:08:37;;;;;;;0.10;0.10;;;6.60;99.90;;;;;;5123912;27;20614;-69
2021/12/18 06:11:08;;;;;;;0.10;0.10;;;6.60;99.90;;;;;;5105248;27;20680;-69
2021/12/18 06:13:36;;;;;;;0.10;0.10;;;6.60;99.90;;;;;;5102881;27;20709;-70
2021/12/18 06:16:05;;;;;;;0.10;0.10;;;6.60;99.90;;;;;;5123668;27;20607;-70
2021/12/18 06:18:34;;;;;;;0.10;0.10;;;6.60;99.90;;;;;;5122740;27;20603;-70
2021/12/18 06:21:01;;;;;;;0.10;0.10;;;6.60;99.90;;;;;;5110186;27;20658;-71
2021/12/18 06:23:29;;;;;;;0.10;0.10;;;6.60;99.90;;;;;;5104922;27;20650;-70
2021/12/18 06:25:56;;;;;;;0.10;0.10;;;6.60;99.90;;;;;;5105706;27;20685;-70
2021/12/18 06:28:23;;;;;;;0.10;0.10;;;6.60;99.90;;;;;;5102899;27;20646;-71
2021/12/18 06:30:50;;;;;;;0.10;0.10;;;6.60;99.90;;;;;;5104024;27;20626;-72
2021/12/18 06:33:18;;;;;;;0.00;0.00;;;6.60;99.90;;;;;;5121836;27;20653;-71
2021/12/18 06:35:46;;;;;;;0.10;0.10;;;6.70;99.90;;;;;;5102816;27;20702;-71
2021/12/18 06:38:13;;;;;;;0.10;0.10;;;6.70;99.90;;;;;;5102170;27;20630;-71
2021/12/18 06:40:40;;;;;;;0.07;0.07;;;6.70;99.90;;;;;;5104407;27;21384;-72
2021/12/18 06:43:07;;;;;;;0.10;0.10;;;6.70;99.90;;;;;;5104687;27;20662;-72
2021/12/18 06:45:34;;;;;;;0.00;0.00;;;6.70;99.90;;;;;;5103752;27;20654;-71
2021/12/18 06:48:02;;;;;;;0.10;0.10;;;6.70;99.90;;;;;;5096271;27;20641;-71
2021/12/18 06:50:29;;;;;;;0.10;0.10;;;6.70;99.90;;;;;;5101366;27;20622;-71
2021/12/18 06:52:57;;;;;;;0.10;0.10;;;6.70;99.90;;;;;;5120576;27;20638;-72
2021/12/18 06:55:24;;;;;;;0.10;0.10;;;6.70;99.90;;;;;;5104529;28;20685;-72
2021/12/18 06:57:51;;;;;;;0.10;0.10;;;6.70;99.90;;;;;;5120381;27;20597;-71
2021/12/18 07:00:21;;;;;;;0.10;0.10;;;6.60;99.90;;;;;;5102886;27;21163;-72
2021/12/18 07:02:51;;;;;;;0.10;0.10;;;6.60;99.90;;;;;;5101432;27;20784;-73
2021/12/18 07:05:19;;;;;;;0.10;0.10;;;6.60;99.90;;;;;;5101982;28;20632;-72
2021/12/18 07:07:46;;;;;;;0.10;0.10;;;6.60;99.90;;;;;;5095885;28;20709;-71
2021/12/18 07:10:15;;;;;;;0.10;0.10;;;6.70;99.90;;;;;;5103309;28;20659;-72
2021/12/18 07:12:43;;;;;;;0.10;0.10;;;6.70;99.90;;;;;;5120213;28;20736;-73
2021/12/18 07:15:12;;;;;;;0.10;0.10;;;6.70;99.90;;;;;;5102264;28;20633;-72
2021/12/18 07:17:39;;;;;;;0.10;0.10;;;6.70;99.90;;;;;;5101019;28;20622;-72
2021/12/18 07:20:08;;;;;;;0.00;0.00;;;6.70;99.90;;;;;;5103251;28;20675;-72
2021/12/18 07:22:35;;;;;;;0.10;0.10;;;6.70;99.90;;;;;;5096145;28;20693;-73
2021/12/18 07:25:02;;;;;;;0.10;0.10;;;6.70;99.90;;;;;;5120080;28;20614;-72
2021/12/18 07:27:31;;;;;;;0.10;0.10;;;6.70;99.90;;;;;;5102871;28;20653;-73
2021/12/18 07:29:58;;;;;;;0.00;0.00;;;6.70;99.90;;;;;;5104078;28;20710;-73
2021/12/18 07:32:26;;;;;;;0.10;0.10;;;6.70;99.90;;;;;;5104847;28;20663;-73
2021/12/18 07:34:54;;;;;;;0.03;0.03;;;6.70;99.90;;;;;;5122405;28;20626;-73
2021/12/18 07:37:23;;;;;;;0.10;0.10;;;6.80;99.90;;;;;;5120428;28;20638;-73
2021/12/18 07:39:51;;;;;;;0.07;0.07;;;6.80;99.90;;;;;;5103483;28;20617;-72
2021/12/18 07:42:18;;;;;;;0.10;0.10;;;6.80;99.90;;;;;;5112437;28;20653;-73
2021/12/18 07:44:47;;;;;;;0.10;0.10;;;6.80;99.90;;;;;;5103080;28;20638;-72
2021/12/18 07:47:14;;;;;;;0.10;0.10;;;6.80;99.90;;;;;;5102783;28;20703;-71
2021/12/18 07:49:41;;;;;;;0.10;0.10;;;6.80;99.90;;;;;;5111698;28;20733;-71
2021/12/18 07:52:08;;;;;;;0.10;0.10;;;6.80;99.90;;;;;;5101089;28;20824;-70
2021/12/18 07:54:35;;;;;;;0.00;0.00;;;6.80;99.90;;;;;;5120890;28;20625;-71
2021/12/18 07:57:02;;;;;;;0.10;0.10;;;6.80;99.90;;;;;;5100928;28;20625;-70
2021/12/18 07:59:29;;;;;;;0.10;0.10;;;6.80;99.90;;;;;;5102212;28;20661;-71
2021/12/18 08:01:57;;;;;;;0.00;0.00;;;6.80;99.90;;;;;;5103145;27;20654;-70
2021/12/18 08:04:25;;;;;;;0.10;0.10;;;6.90;99.90;;;;;;5105280;27;20658;-70
2021/12/18 08:06:52;;;;;;;0.10;0.10;;;6.90;99.90;;;;;;5124604;27;20668;-70
2021/12/18 08:09:18;;;;;;;0.10;0.10;;;6.90;99.90;;;;;;5105721;27;20631;-70
2021/12/18 08:11:45;;;;;;;0.10;0.10;;;6.90;99.90;;;;;;5105482;27;20674;-69
2021/12/18 08:14:12;;;;;;;0.10;0.10;;;7.00;99.90;;;;;;5104835;27;20626;-69
2021/12/18 08:16:39;;;;;;;0.10;0.10;;;7.00;99.90;;;;;;5125303;27;21030;-68
2021/12/18 08:19:07;;;;;;;0.10;0.10;;;7.00;99.90;;;;;;5106135;27;20622;-69
2021/12/18 08:21:34;;;;;;;0.10;0.10;;;7.00;99.90;;;;;;5104350;27;21028;-69
2021/12/18 08:24:01;;;;;;;0.10;0.10;;;7.10;99.90;;;;;;5104011;27;20625;-69
2021/12/18 08:26:29;;;;;;;0.10;0.10;;;7.10;99.90;;;;;;5104565;27;20649;-69
2021/12/18 08:28:56;;;;;;;0.10;0.10;;;7.10;99.90;;;;;;5104918;27;21000;-69
2021/12/18 08:31:22;;;;;;;0.10;0.10;;;7.10;99.90;;;;;;5102015;27;21202;-70
2021/12/18 08:33:50;;;;;;;0.10;0.10;;;7.10;99.90;;;;;;5104116;27;20729;-68
2021/12/18 08:36:18;;;;;;;0.10;0.10;;;7.10;99.90;;;;;;5101700;27;20610;-69
2021/12/18 08:38:46;;;;;;;0.10;0.10;;;7.20;99.90;;;;;;5105084;27;20657;-69
2021/12/18 08:41:12;;;;;;;0.00;0.00;;;7.20;99.90;;;;;;5104551;27;21080;-69
2021/12/18 08:43:39;;;;;;;0.10;0.10;;;7.20;99.90;;;;;;5103644;27;20618;-69
2021/12/18 08:46:07;;;;;;;0.00;0.00;;;7.30;99.90;;;;;;5106605;27;20660;-69
2021/12/18 08:48:34;;;;;;;0.10;0.10;;;7.30;99.90;;;;;;5124379;27;20606;-69
2021/12/18 08:51:02;;;;;;;0.10;0.10;;;7.30;99.90;;;;;;5103115;27;20668;-68
2021/12/18 08:53:30;;;;;;;0.00;0.00;;;7.30;99.90;;;;;;5111275;27;20668;-69
2021/12/18 08:55:58;;;;;;;0.10;0.10;;;7.30;99.90;;;;;;5124225;27;20602;-69
2021/12/18 08:58:25;;;;;;;0.10;0.10;;;7.30;99.90;;;;;;5124811;27;20637;-69
2021/12/18 09:00:51;;;;;;;0.10;0.10;;;7.40;99.90;;;;;;5104574;27;20637;-69
2021/12/18 09:03:19;;;;;;;0.10;0.10;;;7.40;99.90;;;;;;5103787;27;20666;-69
2021/12/18 09:05:47;;;;;;;0.10;0.10;;;7.40;99.90;;;;;;5103816;27;20633;-69
2021/12/18 09:08:14;;;;;;;0.10;0.10;;;7.40;99.90;;;;;;5105999;27;20633;-69
2021/12/18 09:10:42;;;;;;;0.10;0.10;;;7.40;99.90;;;;;;5110701;27;20622;-69
2021/12/18 09:13:09;;;;;;;0.10;0.10;;;7.50;99.90;;;;;;5104630;27;20665;-69
2021/12/18 09:15:36;;;;;;;0.10;0.10;;;7.50;99.90;;;;;;5104218;27;20618;-68
2021/12/18 09:18:04;;;;;;;0.03;0.03;;;7.50;99.90;;;;;;5104694;27;20629;-69
2021/12/18 09:20:31;;;;;;;0.10;0.10;;;7.50;99.90;;;;;;5105965;27;20618;-69
2021/12/18 09:23:00;;;;;;;0.10;0.10;;;7.40;99.90;;;;;;5104718;27;20661;-70
2021/12/18 09:25:28;;;;;;;0.10;0.10;;;7.50;99.90;;;;;;5114042;27;20606;-69
2021/12/18 09:27:56;;;;;;;0.10;0.10;;;7.40;99.90;;;;;;5102840;27;20668;-69
2021/12/18 09:30:25;;;;;;;0.10;0.10;;;7.30;99.90;;;;;;5122217;27;20602;-69
2021/12/18 09:32:52;;;;;;;0.10;0.10;;;7.30;99.90;;;;;;5123708;27;20634;-69
2021/12/18 09:35:21;;;;;;;0.07;0.07;;;7.30;99.90;;;;;;5123471;27;20603;-69
2021/12/18 09:37:48;;;;;;;0.10;0.10;;;7.30;99.90;;;;;;5101687;27;20690;-69
2021/12/18 09:40:18;;;;;;;0.10;0.10;;;7.30;99.90;;;;;;5103790;27;20618;-69
2021/12/18 09:42:45;;;;;;;0.00;0.00;;;7.30;99.90;;;;;;5104854;27;20653;-69
2021/12/18 09:45:15;;;;;;;0.10;0.10;;;7.40;99.90;;;;;;5104553;27;20629;-69
2021/12/18 09:47:44;;;;;;;0.00;0.00;;;7.40;99.90;;;;;;5114195;27;20649;-69
2021/12/18 09:50:13;;;;;;;0.10;0.10;;;7.40;99.90;;;;;;5101815;27;20630;-69
2021/12/18 09:52:40;;;;;;;0.10;0.10;;;7.40;99.90;;;;;;5113017;27;20658;-69
2021/12/18 09:55:09;;;;;;;0.10;0.10;;;7.40;99.90;;;;;;5104505;27;20622;-68
2021/12/18 09:57:36;;;;;;;0.00;0.00;;;7.40;99.90;;;;;;5102626;27;20623;-69
2021/12/18 10:00:06;;;;;;;0.10;0.10;;;7.40;99.90;;;;;;5105197;27;20710;-68
2021/12/18 10:02:42;;;;;;;0.10;0.10;;;7.40;99.90;;;;;;5121928;27;20633;-68
2021/12/18 10:05:20;;;;;;;0.10;0.10;;;7.40;99.90;;;;;;5113481;27;20672;-69
2021/12/18 10:08:07;;;;;;;0.10;0.10;;;7.40;99.90;;;;;;5103973;27;20657;-69
2021/12/18 10:10:34;;;;;;;0.10;0.10;;;7.50;99.90;;;;;;5103504;27;20629;-68
2021/12/18 10:13:06;;;;;;;0.10;0.10;;;7.50;99.90;;;;;;5104014;27;20657;-69
2021/12/18 10:15:34;;;;;;;0.00;0.00;;;7.50;99.90;;;;;;5103356;27;20622;-68
2021/12/18 10:18:08;;;;;;;0.10;0.10;;;7.50;99.90;;;;;;5097493;27;20622;-69
2021/12/18 10:20:35;;;;;;;0.10;0.10;;;7.50;99.90;;;;;;5105079;27;20643;-69
2021/12/18 10:23:05;;;;;;;0.10;0.10;;;7.50;99.90;;;;;;5116871;27;20665;-69
2021/12/18 10:25:37;;;;;;;0.10;0.10;;;7.50;99.90;;;;;;5122240;27;20609;-68
2021/12/18 10:28:10;;;;;;;0.00;0.00;;;7.60;99.90;;;;;;5111908;27;20753;-69
2021/12/18 10:30:44;;;;;;;0.10;0.10;;;7.60;99.90;;;;;;5123068;27;20709;-69
2021/12/18 10:33:13;;;;;;;0.10;0.10;;;7.60;99.90;;;;;;5094236;27;20665;-69
2021/12/18 10:35:43;;;;;;;0.10;0.10;;;7.60;99.90;;;;;;5103037;27;20625;-69
2021/12/18 10:38:31;;;;;;;0.10;0.10;;;7.70;99.90;;;;;;5113443;27;20618;-69
2021/12/18 10:40:58;;;;;;;0.10;0.10;;;7.60;99.90;;;;;;5114365;27;20626;-69
2021/12/18 10:43:26;;;;;;;0.10;0.10;;;7.60;99.90;;;;;;5101966;27;20657;-68
2021/12/18 10:45:53;;;;;;;0.10;0.10;;;7.60;99.90;;;;;;5102971;27;20630;-68
2021/12/18 10:48:21;;;;;;;0.10;0.10;;;7.60;99.90;;;;;;5097235;27;20663;-68
2021/12/18 10:50:50;;;;;;;0.10;0.10;;;7.60;99.90;;;;;;5120193;27;20610;-69
2021/12/18 10:53:19;;;;;;;0.10;0.10;;;7.60;99.90;;;;;;5100729;27;20699;-69
2021/12/18 10:55:49;;;;;;;0.10;0.10;;;7.60;99.90;;;;;;5100599;28;21285;-68
2021/12/18 10:58:19;;;;;;;0.10;0.10;;;7.60;99.90;;;;;;5103249;28;20801;-69
2021/12/18 11:00:52;;;;;;;0.10;0.10;;;7.60;99.90;;;;;;5101369;27;20706;-68
2021/12/18 11:03:30;;;;;;;0.10;0.10;;;7.60;99.90;;;;;;5102811;28;20665;-69
2021/12/18 11:06:19;;;;;;;0.10;0.10;;;7.60;99.90;;;;;;5120173;27;20606;-69
2021/12/18 11:09:04;;;;;;;0.10;0.10;;;7.60;99.90;;;;;;5103647;28;20977;-68
2021/12/18 11:14:24;;;;;;;0.10;0.10;;;7.60;99.90;;;;;;5121442;28;20609;-69
2021/12/18 11:16:53;;;;;;;0.10;0.10;;;7.60;99.90;;;;;;5104042;28;20622;-68
2021/12/18 11:19:24;;;;;;;0.00;0.00;;;7.60;99.90;;;;;;5095968;28;21223;-69
2021/12/18 11:21:53;;;;;;;0.00;0.00;;;7.60;99.90;;;;;;5110794;28;20657;-69
2021/12/18 11:24:22;;;;;;;0.10;0.10;;;7.60;99.90;;;;;;5115960;28;20630;-69
2021/12/18 11:26:57;;;;;;;0.10;0.10;;;7.60;99.90;;;;;;5103281;28;20641;-68
2021/12/18 11:29:29;;;;;;;0.10;0.10;;;7.70;99.90;;;;;;5097028;28;20625;-69
2021/12/18 11:31:56;;;;;;;0.10;0.10;;;7.70;99.90;;;;;;5113953;27;20650;-69
2021/12/18 11:34:26;;;;;;;0.10;0.10;;;7.70;99.90;;;;;;5104067;28;20618;-69
2021/12/18 11:36:54;;;;;;;0.10;0.10;;;7.70;99.90;;;;;;5123896;27;20706;-68
2021/12/18 11:39:25;;;;;;;0.10;0.10;;;7.80;99.90;;;;;;5105841;27;20641;-68
2021/12/18 11:41:53;;;;;;;0.10;0.10;;;7.80;99.90;;;;;;5125975;27;20729;-68
2021/12/18 11:44:32;;;;;;;0.10;0.10;;;7.80;99.90;;;;;;5108032;27;20630;-69
2021/12/18 11:47:21;;;;;;;0.10;0.10;;;7.80;99.90;;;;;;5116764;27;20657;-69
2021/12/18 11:49:49;;;;;;;0.10;0.10;;;7.80;99.90;;;;;;5099369;27;20634;-69
2021/12/18 11:52:16;;;;;;;0.10;0.10;;;7.90;99.90;;;;;;5106993;27;20771;-68
2021/12/18 11:54:50;;;;;;;0.10;0.10;;;7.90;99.90;;;;;;5106559;27;20730;-68
2021/12/18 11:57:41;;;;;;;0.10;0.10;;;8.00;99.90;;;;;;5106162;27;20718;-68
2021/12/18 12:00:31;;;;;;;0.10;0.10;;;8.00;99.90;;;;;;5114451;27;20650;-69
2021/12/18 12:02:59;;;;;;;0.00;0.00;;;8.00;99.90;;;;;;5106873;27;20748;-68
2021/12/18 12:05:37;;;;;;;0.10;0.10;;;8.00;99.90;;;;;;5105557;27;20662;-68
2021/12/18 12:08:22;;;;;;;0.00;0.00;;;8.00;99.90;;;;;;5102653;27;20638;-69
2021/12/18 12:11:15;;;;;;;0.10;0.10;;;8.00;99.90;;;;;;5116971;27;20625;-68
2021/12/18 12:13:58;;;;;;;0.10;0.10;;;8.10;99.90;;;;;;5118388;27;20710;-68
2021/12/18 12:17:00;;;;;;;0.10;0.10;;;8.10;99.90;;;;;;5114756;27;20609;-69
2021/12/18 12:19:47;;;;;;;0.10;0.10;;;8.10;99.90;;;;;;5113589;27;20629;-68
2021/12/18 12:22:48;;;;;;;0.00;0.00;;;8.10;99.90;;;;;;5105330;27;20661;-68
2021/12/18 12:25:19;;;;;;;0.10;0.10;;;8.00;99.90;;;;;;5105953;27;20650;-69
2021/12/18 12:27:59;;;;;;;0.10;0.10;;;8.00;99.90;;;;;;5104922;27;20649;-70
2021/12/18 12:30:30;;;;;;;0.03;0.03;;;8.00;99.90;;;;;;5106678;27;20654;-68
2021/12/18 12:32:59;;;;;;;0.10;0.10;;;8.00;99.90;;;;;;5105062;27;21072;-68
2021/12/18 12:35:27;;;;;;;0.10;0.10;;;8.10;99.90;;;;;;5105164;27;20786;-69
2021/12/18 12:37:56;;;;;;;0.10;0.10;;;8.10;99.90;;;;;;5104969;27;20622;-69
2021/12/18 12:40:34;;;;;;;0.10;0.10;;;8.10;99.90;;;;;;5111815;27;20633;-69
2021/12/18 12:43:18;;;;;;;0.10;0.10;;;8.00;99.90;;;;;;5094134;27;20749;-69
2021/12/18 12:45:48;;;;;;;0.10;0.10;;;8.00;99.90;;;;;;5105110;27;20686;-68
2021/12/18 12:48:16;;;;;;;0.10;0.10;;;8.00;99.90;;;;;;5105700;27;20737;-68
2021/12/18 12:50:43;;;;;;;0.10;0.10;;;8.00;99.90;;;;;;5123021;27;20599;-69
2021/12/18 12:53:12;;;;;;;0.00;0.00;;;8.00;99.90;;;;;;5105242;27;20664;-69
2021/12/18 12:55:42;;;;;;;0.10;0.10;;;8.00;99.90;;;;;;5104492;27;20653;-68
2021/12/18 12:58:20;;;;;;;0.10;0.10;;;8.00;99.90;;;;;;5100058;27;20625;-68
2021/12/18 13:00:59;;;;;;;0.10;0.10;;;8.00;99.90;;;;;;5123591;27;20602;-69
2021/12/18 13:03:36;;;;;;;0.10;0.10;;;8.00;99.90;;;;;;5092825;27;20677;-68
2021/12/18 13:06:09;;;;;;;0.10;0.10;;;7.90;99.90;;;;;;5115476;27;20629;-68
2021/12/18 13:08:40;;;;;;;0.10;0.10;;;8.00;99.90;;;;;;5097626;27;20698;-67
2021/12/18 13:11:09;;;;;;;0.10;0.10;;;7.90;99.90;;;;;;5096114;27;20626;-68
2021/12/18 13:13:37;;;;;;;0.10;0.10;;;7.90;99.90;;;;;;5105202;27;20615;-68
2021/12/18 13:16:10;;;;;;;0.10;0.10;;;8.00;99.90;;;;;;5122681;27;21114;-68
2021/12/18 13:18:39;;;;;;;0.10;0.10;;;7.90;99.90;;;;;;5124502;27;20598;-68
2021/12/18 13:21:10;;;;;;;0.00;0.00;;;7.90;99.90;;;;;;5104244;27;20627;-68
2021/12/18 13:23:50;;;;;;;0.10;0.10;;;7.90;99.90;;;;;;5120523;27;20609;-68
2021/12/18 13:26:20;;;;;;;0.03;0.03;;;7.90;99.90;;;;;;5103077;27;20614;-68
2021/12/18 13:28:53;;;;;;;0.00;0.00;;;8.00;99.90;;;;;;5096136;27;20645;-68
2021/12/18 13:31:24;;;;;;;0.10;0.10;;;8.00;99.90;;;;;;5122999;27;20634;-68
2021/12/18 13:34:04;;;;;;;0.10;0.10;;;7.90;99.90;;;;;;5093651;27;20676;-67
2021/12/18 13:36:43;;;;;;;0.10;0.10;;;8.00;99.90;;;;;;5122235;27;20645;-68
2021/12/18 13:39:14;;;;;;;0.10;0.10;;;7.90;99.90;;;;;;5096179;27;20622;-69
2021/12/18 13:41:57;;;;;;;0.10;0.10;;;7.90;99.90;;;;;;5122124;27;20665;-68
2021/12/18 13:44:24;;;;;;;0.00;0.00;;;7.90;99.90;;;;;;5102430;27;20633;-68